createdAt,value
2022-12-25T00:01:47.760Z,5.68
2022-12-25T00:06:49.266Z,5.97
2022-12-25T00:11:50.771Z,6.70
2022-12-25T00:16:52.396Z,7.53
2022-12-25T00:21:53.865Z,7.47
2022-12-25T00:26:55.505Z,7.75
2022-12-25T00:31:57.220Z,7.10
2022-12-25T00:36:58.789Z,8.80
2022-12-25T00:42:00.328Z,7.95
2022-12-25T00:47:02.029Z,8.73
2022-12-25T00:52:03.589Z,8.18
2022-12-25T00:57:05.085Z,7.38
2022-12-25T01:02:06.657Z,6.53
2022-12-25T01:07:08.398Z,6.32
2022-12-25T01:12:09.869Z,6.18
2022-12-25T01:17:11.338Z,6.75
2022-12-25T01:22:13.034Z,5.13
2022-12-25T01:27:14.540Z,5.72
2022-12-25T01:32:16.027Z,5.10
2022-12-25T01:37:17.526Z,5.97
2022-12-25T01:42:19.045Z,6.32
2022-12-25T01:47:20.492Z,5.30
2022-12-25T01:52:24.270Z,5.28
2022-12-25T01:57:26.135Z,5.60
2022-12-25T02:02:27.799Z,5.97
2022-12-25T02:07:29.513Z,5.30
2022-12-25T02:12:31.034Z,6.72
2022-12-25T02:17:32.665Z,6.15
2022-12-25T02:22:34.328Z,5.57
2022-12-25T02:27:35.805Z,5.70
2022-12-25T02:32:37.281Z,6.00
2022-12-25T02:37:41.364Z,5.65
2022-12-25T02:42:42.890Z,6.22
2022-12-25T02:47:44.533Z,5.93
2022-12-25T02:52:46.061Z,6.38
2022-12-25T02:57:48.115Z,5.93
2022-12-25T03:02:49.593Z,6.93
2022-12-25T03:07:51.110Z,6.80
2022-12-25T03:12:52.616Z,6.55
2022-12-25T03:17:54.159Z,6.68
2022-12-25T03:22:55.799Z,6.70
2022-12-25T03:27:57.316Z,5.95
2022-12-25T03:32:58.914Z,6.15
2022-12-25T03:38:00.462Z,6.13
2022-12-25T03:43:01.949Z,6.57
2022-12-25T03:48:03.432Z,5.88
2022-12-25T03:53:04.913Z,6.88
2022-12-25T03:58:06.384Z,6.07
2022-12-25T04:03:07.918Z,7.85
2022-12-25T04:08:09.391Z,8.40
2022-12-25T04:13:10.870Z,8.13
2022-12-25T04:18:12.376Z,13.35
2022-12-25T04:23:13.798Z,9.32
2022-12-25T04:28:15.268Z,8.68
2022-12-25T04:33:16.799Z,11.18
2022-12-25T04:38:18.430Z,8.73
2022-12-25T04:43:20.056Z,9.50
2022-12-25T04:48:21.557Z,9.13
2022-12-25T04:53:23.232Z,8.25
2022-12-25T04:58:24.751Z,8.95
2022-12-25T05:03:26.285Z,8.98
2022-12-25T05:08:27.806Z,8.65
2022-12-25T05:13:29.432Z,8.60
2022-12-25T05:18:30.974Z,9.80
2022-12-25T05:23:32.429Z,9.85
2022-12-25T05:28:33.953Z,10.07
2022-12-25T05:33:35.473Z,9.10
2022-12-25T05:38:36.975Z,10.40
2022-12-25T05:43:38.446Z,10.45
2022-12-25T05:48:39.948Z,10.77
2022-12-25T05:53:41.420Z,10.52
2022-12-25T05:58:42.913Z,9.93
2022-12-25T06:03:44.507Z,10.40
2022-12-25T06:08:46.060Z,8.98
2022-12-25T06:13:47.681Z,9.15
2022-12-25T06:18:49.178Z,7.90
2022-12-25T06:23:50.772Z,8.82
2022-12-25T06:28:52.323Z,9.00
2022-12-25T06:33:53.857Z,8.63
2022-12-25T06:38:55.371Z,8.60
2022-12-25T06:43:56.896Z,8.70
2022-12-25T06:48:58.407Z,9.60
2022-12-25T06:54:00.043Z,10.05
2022-12-25T06:59:01.542Z,10.48
2022-12-25T07:04:03.053Z,9.35
2022-12-25T07:09:04.522Z,8.98
2022-12-25T07:14:05.999Z,9.23
2022-12-25T07:19:07.469Z,9.63
2022-12-25T07:24:09.093Z,9.88
2022-12-25T07:29:10.729Z,9.75
2022-12-25T07:34:12.372Z,10.82
2022-12-25T07:39:13.888Z,11.50
2022-12-25T07:44:15.559Z,12.20
2022-12-25T07:49:17.230Z,14.48
2022-12-25T07:54:18.715Z,14.63
2022-12-25T07:59:20.131Z,13.57
2022-12-25T08:04:21.811Z,13.48
2022-12-25T08:09:23.397Z,13.60
2022-12-25T08:14:24.916Z,13.18
2022-12-25T08:19:26.383Z,16.35
2022-12-25T08:24:28.041Z,13.32
2022-12-25T08:29:29.675Z,12.88
2022-12-25T08:34:31.203Z,13.00
2022-12-25T08:39:32.718Z,14.45
2022-12-25T08:44:34.224Z,14.27
2022-12-25T08:49:35.866Z,12.68
2022-12-25T08:54:37.550Z,13.63
2022-12-25T08:59:39.071Z,13.88
2022-12-25T09:04:40.569Z,12.93
2022-12-25T09:09:42.063Z,12.00
2022-12-25T09:14:43.598Z,12.98
2022-12-25T09:19:45.107Z,13.27
2022-12-25T09:24:46.557Z,12.02
2022-12-25T09:29:48.189Z,12.25
2022-12-25T09:34:50.177Z,12.43
2022-12-25T09:39:51.822Z,10.98
2022-12-25T09:44:53.465Z,11.13
2022-12-25T09:49:54.994Z,11.45
2022-12-25T09:54:56.519Z,11.00
2022-12-25T09:59:58.038Z,9.90
2022-12-25T10:04:59.511Z,10.63
2022-12-25T10:10:00.980Z,11.40
2022-12-25T10:15:02.512Z,11.15
2022-12-25T10:20:04.022Z,14.02
2022-12-25T10:25:05.495Z,10.93
2022-12-25T10:30:07.175Z,9.02
2022-12-25T10:35:08.684Z,9.60
2022-12-25T10:40:10.331Z,7.38
2022-12-25T10:45:11.921Z,8.70
2022-12-25T10:50:13.438Z,9.57
2022-12-25T10:55:15.000Z,8.88
2022-12-25T11:00:16.498Z,9.57
2022-12-25T11:05:18.072Z,9.80
2022-12-25T11:10:19.586Z,13.68
2022-12-25T11:15:21.110Z,11.40
2022-12-25T11:20:22.777Z,9.60
2022-12-25T11:25:24.451Z,9.40
2022-12-25T11:30:25.888Z,7.63
2022-12-25T11:35:27.386Z,7.40
2022-12-25T11:40:28.867Z,7.57
2022-12-25T11:45:30.378Z,7.53
2022-12-25T11:50:31.892Z,7.95
2022-12-25T11:55:33.377Z,7.03
2022-12-25T12:00:34.829Z,8.18
2022-12-25T12:05:36.539Z,8.60
2022-12-25T12:10:38.009Z,8.95
2022-12-25T12:15:39.511Z,7.97
2022-12-25T12:20:41.577Z,7.90
2022-12-25T12:25:43.049Z,7.63
2022-12-25T12:30:44.525Z,6.35
2022-12-25T12:35:46.138Z,8.25
2022-12-25T12:40:47.835Z,7.20
2022-12-25T12:45:49.446Z,6.22
2022-12-25T12:50:50.965Z,6.93
2022-12-25T12:55:52.539Z,7.38
2022-12-25T13:00:54.296Z,7.05
2022-12-25T13:05:55.845Z,6.35
2022-12-25T13:10:57.640Z,6.80
2022-12-25T13:15:59.426Z,6.82
2022-12-25T13:21:00.863Z,5.93
2022-12-25T13:26:02.573Z,6.13
2022-12-25T13:31:04.025Z,5.78
2022-12-25T13:36:05.450Z,5.90
2022-12-25T13:41:06.884Z,7.13
2022-12-25T13:46:08.396Z,8.38
2022-12-25T13:51:09.957Z,9.43
2022-12-25T13:56:11.769Z,10.88
2022-12-25T14:01:13.536Z,10.55
2022-12-25T14:06:15.171Z,12.05
2022-12-25T14:11:16.747Z,10.30
2022-12-25T14:16:18.439Z,10.90
2022-12-25T14:21:19.890Z,13.30
2022-12-25T14:26:21.355Z,12.68
2022-12-25T14:31:22.942Z,14.82
2022-12-25T14:36:24.601Z,18.73
2022-12-25T14:41:26.447Z,21.50
2022-12-25T14:46:28.190Z,20.13
2022-12-25T14:51:29.904Z,20.48
2022-12-25T14:56:31.558Z,17.70
2022-12-25T15:01:33.218Z,14.98
2022-12-25T15:06:34.797Z,14.35
2022-12-25T15:11:36.319Z,16.13
2022-12-25T15:16:37.992Z,15.65
2022-12-25T15:21:39.601Z,13.95
2022-12-25T15:26:41.812Z,14.02
2022-12-25T15:31:43.343Z,16.17
2022-12-25T15:36:44.805Z,16.50
2022-12-25T15:41:46.282Z,16.90
2022-12-25T15:46:47.868Z,14.73
2022-12-25T15:51:49.336Z,14.60
2022-12-25T15:56:50.833Z,16.92
2022-12-25T16:01:52.650Z,12.60
2022-12-25T16:06:54.208Z,13.73
2022-12-25T16:11:55.700Z,12.82
2022-12-25T16:16:57.148Z,11.43
2022-12-25T16:21:58.575Z,14.27
2022-12-25T16:27:00.020Z,14.57
2022-12-25T16:32:01.451Z,18.10
2022-12-25T16:37:02.880Z,15.25
2022-12-25T16:42:04.316Z,13.57
2022-12-25T16:47:05.767Z,13.13
2022-12-25T16:52:07.179Z,13.85
2022-12-25T16:57:08.606Z,13.82
2022-12-25T17:02:10.185Z,15.63
2022-12-25T17:07:11.671Z,14.75
2022-12-25T17:12:13.134Z,16.52
2022-12-25T17:17:14.606Z,16.75
2022-12-25T17:22:16.038Z,15.02
2022-12-25T17:27:17.471Z,14.70
2022-12-25T17:32:18.888Z,14.45
2022-12-25T17:37:20.349Z,14.70
2022-12-25T17:42:21.826Z,17.38
2022-12-25T17:47:23.266Z,17.50
2022-12-25T17:52:24.733Z,15.90
2022-12-25T17:57:26.201Z,14.25
2022-12-25T18:02:27.765Z,14.15
2022-12-25T18:07:29.376Z,12.48
2022-12-25T18:12:30.817Z,13.85
2022-12-25T18:17:32.244Z,14.18
2022-12-25T18:22:33.760Z,15.23
2022-12-25T18:27:35.266Z,10.88
2022-12-25T18:32:36.736Z,13.93
2022-12-25T18:37:40.176Z,12.40
2022-12-25T18:42:41.912Z,16.98
2022-12-25T18:47:43.595Z,15.43
2022-12-25T18:52:47.363Z,14.85
2022-12-25T18:57:52.765Z,14.35
2022-12-25T19:02:54.316Z,13.90
2022-12-25T19:07:55.878Z,11.70
2022-12-25T19:12:57.325Z,9.75
2022-12-25T19:17:58.763Z,14.60
2022-12-25T19:23:00.235Z,16.50
2022-12-25T19:28:01.706Z,8.40
2022-12-25T19:33:03.434Z,14.75
2022-12-25T19:38:04.968Z,13.43
2022-12-25T19:43:06.442Z,14.02
2022-12-25T19:48:07.878Z,16.58
2022-12-25T19:53:09.373Z,18.38
2022-12-25T19:58:10.814Z,16.77
2022-12-25T20:03:12.346Z,15.93
2022-12-25T20:08:13.839Z,17.13
2022-12-25T20:13:15.279Z,10.65
2022-12-25T20:18:16.772Z,6.05
2022-12-25T20:23:18.200Z,5.88
2022-12-25T20:28:19.662Z,14.05
2022-12-25T20:33:21.164Z,9.35
2022-12-25T20:38:22.643Z,13.35
2022-12-25T20:43:24.157Z,8.63
2022-12-25T20:48:25.657Z,11.70
2022-12-25T20:53:27.114Z,9.68
2022-12-25T20:58:28.546Z,13.43
2022-12-25T21:03:30.061Z,14.85
2022-12-25T21:08:31.624Z,12.68
2022-12-25T21:13:33.079Z,12.82
2022-12-25T21:18:34.506Z,6.78
2022-12-25T21:23:35.987Z,9.18
2022-12-25T21:28:37.448Z,7.82
2022-12-25T21:33:38.913Z,9.00
2022-12-25T21:38:40.381Z,8.82
2022-12-25T21:43:41.799Z,8.90
2022-12-25T21:48:43.303Z,9.52
2022-12-25T21:53:44.746Z,12.13
2022-12-25T21:58:46.191Z,10.88
2022-12-25T22:03:47.665Z,11.93
2022-12-25T22:08:49.098Z,8.80
2022-12-25T22:13:50.731Z,10.57
2022-12-25T22:18:52.219Z,12.75
2022-12-25T22:23:53.843Z,11.52
2022-12-25T22:28:55.336Z,12.10
2022-12-25T22:33:56.973Z,12.77
2022-12-25T22:38:58.443Z,11.38
2022-12-25T22:44:17.151Z,5.88
2022-12-25T22:49:19.451Z,12.55
2022-12-25T22:54:20.918Z,6.63
2022-12-25T22:59:22.425Z,12.00
2022-12-25T23:04:23.909Z,8.13
2022-12-25T23:09:25.435Z,10.48
2022-12-25T23:14:26.944Z,11.50
2022-12-25T23:19:28.381Z,10.85
2022-12-25T23:24:29.875Z,10.60
2022-12-25T23:29:31.534Z,8.35
2022-12-25T23:34:33.042Z,11.32
2022-12-25T23:39:34.714Z,8.00
2022-12-25T23:44:36.182Z,12.10
2022-12-25T23:49:37.609Z,9.88
2022-12-25T23:54:39.109Z,11.75
2022-12-25T23:59:40.766Z,11.27
